Time,TemperatureF,DewpointF,PressureIn,WindDirection,WindDirectionDegrees,WindSpeedMPH,WindSpeedGustMPH,Humidity,HourlyPrecipIn,Conditions,Clouds,dailyrainin,SoftwareType,DateUTC
2013-07-29 00:01:00,56.8,49.3,30.09,West,270,0.0,0.0,76,0.00,,,0.00,WUHU21623XXSP,2013-07-29 04:01:00,
2013-07-29 00:06:00,56.8,49.3,30.09,West,270,0.0,0.0,76,0.00,,,0.00,WUHU21623XXSP,2013-07-29 04:06:00,
2013-07-29 00:11:00,56.7,49.1,30.10,West,270,0.0,0.0,76,0.00,,,0.00,WUHU21623XXSP,2013-07-29 04:11:00,
2013-07-29 00:16:00,56.5,48.9,30.09,West,270,0.0,0.0,76,0.00,,,0.00,WUHU21623XXSP,2013-07-29 04:16:00,
2013-07-29 00:21:00,56.5,49.3,30.10,West,270,0.0,0.0,77,0.00,,,0.00,WUHU21623XXSP,2013-07-29 04:21:00,
2013-07-29 00:26:00,56.5,49.3,30.10,West,270,0.0,0.0,77,0.00,,,0.00,WUHU21623XXSP,2013-07-29 04:26:00,
2013-07-29 00:31:00,56.5,49.3,30.10,West,270,0.0,0.0,77,0.00,,,0.00,WUHU21623XXSP,2013-07-29 04:31:00,
2013-07-29 00:36:00,56.5,49.3,30.09,West,270,0.0,0.0,77,0.00,,,0.00,WUHU21623XXSP,2013-07-29 04:36:00,
2013-07-29 00:41:00,56.1,48.9,30.10,West,270,0.0,0.0,77,0.00,,,0.00,WUHU21623XXSP,2013-07-29 04:41:00,
2013-07-29 00:46:00,55.9,48.8,30.10,West,270,0.0,0.0,77,0.00,,,0.00,WUHU21623XXSP,2013-07-29 04:46:00,
2013-07-29 00:51:00,55.8,48.6,30.10,West,270,0.0,0.0,77,0.00,,,0.00,WUHU21623XXSP,2013-07-29 04:51:00,
2013-07-29 00:56:00,55.4,48.3,30.10,West,270,0.0,0.0,77,0.00,,,0.00,WUHU21623XXSP,2013-07-29 04:56:00,
2013-07-29 01:01:00,55.4,48.3,30.10,West,270,0.0,0.0,78,0.00,,,0.00,WUHU21623XXSP,2013-07-29 05:01:00,
2013-07-29 01:06:00,55.2,48.4,30.10,West,270,0.0,0.0,78,0.00,,,0.00,WUHU21623XXSP,2013-07-29 05:06:00,
2013-07-29 01:11:00,54.7,47.9,30.11,West,270,0.0,0.0,78,0.00,,,0.00,WUHU21623XXSP,2013-07-29 05:11:00,
2013-07-29 01:17:00,54.7,47.9,30.11,West,270,0.0,0.0,78,0.00,,,0.00,WUHU21623XXSP,2013-07-29 05:17:00,
2013-07-29 01:22:00,54.7,48.3,30.11,West,270,0.0,0.0,79,0.00,,,0.00,WUHU21623XXSP,2013-07-29 05:22:00,
2013-07-29 01:27:00,54.7,48.3,30.11,West,270,0.0,0.0,79,0.00,,,0.00,WUHU21623XXSP,2013-07-29 05:27:00,
2013-07-29 01:32:00,54.7,48.3,30.11,West,270,0.0,0.0,80,0.00,,,0.00,WUHU21623XXSP,2013-07-29 05:32:00,
2013-07-29 01:37:00,55.0,49.0,30.10,West,270,0.0,0.0,80,0.00,,,0.00,WUHU21623XXSP,2013-07-29 05:37:00,
2013-07-29 01:42:00,55.4,49.6,30.11,West,270,0.0,0.0,81,0.00,,,0.00,WUHU21623XXSP,2013-07-29 05:42:00,
2013-07-29 01:47:00,55.8,50.0,30.11,West,270,0.0,0.0,81,0.00,,,0.00,WUHU21623XXSP,2013-07-29 05:47:00,
2013-07-29 01:52:00,55.9,50.5,30.10,West,270,0.0,0.0,82,0.00,,,0.00,WUHU21623XXSP,2013-07-29 05:52:00,
2013-07-29 01:57:00,56.1,50.6,30.10,West,270,0.0,0.0,82,0.00,,,0.00,WUHU21623XXSP,2013-07-29 05:57:00,
2013-07-29 02:02:00,56.1,50.6,30.10,West,270,0.0,0.0,82,0.00,,,0.00,WUHU21623XXSP,2013-07-29 06:02:00,
2013-07-29 02:07:00,56.3,50.8,30.10,West,270,0.0,0.0,82,0.00,,,0.00,WUHU21623XXSP,2013-07-29 06:07:00,
2013-07-29 02:12:00,56.3,50.8,30.09,West,270,0.0,0.0,82,0.00,,,0.00,WUHU21623XXSP,2013-07-29 06:12:00,
2013-07-29 02:17:00,56.5,51.0,30.10,West,270,0.0,0.0,82,0.00,,,0.00,WUHU21623XXSP,2013-07-29 06:17:00,
2013-07-29 02:22:00,56.5,51.0,30.10,West,270,0.0,0.0,82,0.00,,,0.00,WUHU21623XXSP,2013-07-29 06:22:00,
2013-07-29 02:27:00,56.5,51.0,30.10,West,270,0.0,0.0,82,0.00,,,0.00,WUHU21623XXSP,2013-07-29 06:27:00,
2013-07-29 02:32:00,56.5,51.0,30.10,West,270,0.0,0.0,82,0.00,,,0.00,WUHU21623XXSP,2013-07-29 06:32:00,
2013-07-29 02:37:00,56.3,51.0,30.10,West,270,0.0,0.0,82,0.00,,,0.00,WUHU21623XXSP,2013-07-29 06:37:00,
2013-07-29 02:42:00,56.3,50.8,30.10,West,270,0.0,0.0,82,0.00,,,0.00,WUHU21623XXSP,2013-07-29 06:42:00,
2013-07-29 02:47:00,56.1,50.6,30.10,West,270,0.0,0.0,82,0.00,,,0.00,WUHU21623XXSP,2013-07-29 06:47:00,
2013-07-29 02:52:00,56.1,50.6,30.11,West,270,0.0,0.0,82,0.00,,,0.00,WUHU21623XXSP,2013-07-29 06:52:00,
2013-07-29 02:57:00,56.5,50.8,30.10,West,270,0.0,0.0,82,0.00,,,0.00,WUHU21623XXSP,2013-07-29 06:57:00,
2013-07-29 03:02:00,56.5,51.0,30.10,West,270,0.0,0.0,82,0.00,,,0.00,WUHU21623XXSP,2013-07-29 07:02:00,
2013-07-29 03:07:00,56.8,51.4,30.10,West,270,0.0,0.0,82,0.00,,,0.00,WUHU21623XXSP,2013-07-29 07:07:00,
2013-07-29 03:12:00,56.8,51.4,30.11,West,270,0.0,0.0,82,0.00,,,0.00,WUHU21623XXSP,2013-07-29 07:12:00,
2013-07-29 03:17:00,56.8,51.4,30.11,West,270,0.0,0.0,82,0.00,,,0.00,WUHU21623XXSP,2013-07-29 07:17:00,
2013-07-29 03:22:00,56.8,51.4,30.11,West,270,0.0,0.0,82,0.00,,,0.00,WUHU21623XXSP,2013-07-29 07:22:00,
2013-07-29 03:27:00,57.0,51.5,30.11,West,270,0.0,0.0,82,0.00,,,0.00,WUHU21623XXSP,2013-07-29 07:27:00,
2013-07-29 03:32:00,57.0,51.5,30.11,West,270,0.0,0.0,82,0.00,,,0.00,WUHU21623XXSP,2013-07-29 07:32:00,
2013-07-29 03:37:00,57.0,51.5,30.11,West,270,0.0,0.0,82,0.00,,,0.00,WUHU21623XXSP,2013-07-29 07:37:00,
2013-07-29 03:42:00,57.2,51.7,30.11,West,270,0.0,0.0,82,0.00,,,0.00,WUHU21623XXSP,2013-07-29 07:42:00,
2013-07-29 03:47:00,57.4,51.9,30.11,West,270,0.0,0.0,82,0.00,,,0.00,WUHU21623XXSP,2013-07-29 07:47:00,
2013-07-29 03:52:00,57.4,51.9,30.11,West,270,0.0,0.0,82,0.00,,,0.00,WUHU21623XXSP,2013-07-29 07:52:00,
2013-07-29 03:57:00,57.4,51.9,30.11,West,270,0.0,0.0,82,0.00,,,0.00,WUHU21623XXSP,2013-07-29 07:57:00,
2013-07-29 04:02:00,57.4,51.9,30.11,West,270,0.0,0.0,82,0.00,,,0.00,WUHU21623XXSP,2013-07-29 08:02:00,
2013-07-29 04:07:00,57.6,52.4,30.11,West,270,0.0,0.0,83,0.00,,,0.00,WUHU21623XXSP,2013-07-29 08:07:00,
2013-07-29 04:12:00,57.6,52.4,30.11,West,270,0.0,0.0,83,0.00,,,0.00,WUHU21623XXSP,2013-07-29 08:12:00,
2013-07-29 04:17:00,57.7,52.6,30.12,West,270,0.0,0.0,83,0.00,,,0.00,WUHU21623XXSP,2013-07-29 08:17:00,
2013-07-29 04:22:00,57.7,52.6,30.11,West,270,0.0,0.0,83,0.00,,,0.00,WUHU21623XXSP,2013-07-29 08:22:00,
2013-07-29 04:27:00,57.7,52.6,30.11,West,270,0.0,0.0,83,0.00,,,0.00,WUHU21623XXSP,2013-07-29 08:27:00,
2013-07-29 04:32:00,57.7,52.6,30.11,West,270,0.0,0.0,83,0.00,,,0.00,WUHU21623XXSP,2013-07-29 08:32:00,
2013-07-29 04:37:00,57.4,52.2,30.12,West,270,0.0,0.0,83,0.00,,,0.00,WUHU21623XXSP,2013-07-29 08:37:00,
2013-07-29 04:42:00,57.4,52.2,30.12,West,270,0.0,0.0,83,0.00,,,0.00,WUHU21623XXSP,2013-07-29 08:42:00,
2013-07-29 04:47:00,57.0,51.9,30.12,West,270,0.0,0.0,83,0.00,,,0.00,WUHU21623XXSP,2013-07-29 08:47:00,
2013-07-29 04:52:00,57.0,51.9,30.12,West,270,0.0,0.0,83,0.00,,,0.00,WUHU21623XXSP,2013-07-29 08:52:00,
2013-07-29 04:57:00,57.0,51.7,30.12,West,270,0.0,0.0,83,0.00,,,0.00,WUHU21623XXSP,2013-07-29 08:57:00,
2013-07-29 05:02:00,57.0,51.9,30.12,West,270,0.0,0.0,83,0.00,,,0.00,WUHU21623XXSP,2013-07-29 09:02:00,
2013-07-29 05:07:00,57.0,51.9,30.12,West,270,0.0,0.0,83,0.00,,,0.00,WUHU21623XXSP,2013-07-29 09:07:00,
2013-07-29 05:12:00,57.0,51.9,30.12,West,270,0.0,0.0,83,0.00,,,0.00,WUHU21623XXSP,2013-07-29 09:12:00,
2013-07-29 05:17:00,56.8,51.7,30.13,West,270,0.0,0.0,83,0.00,,,0.00,WUHU21623XXSP,2013-07-29 09:17:00,
2013-07-29 05:22:00,56.7,51.5,30.13,West,270,0.0,0.0,83,0.00,,,0.00,WUHU21623XXSP,2013-07-29 09:22:00,
2013-07-29 05:27:00,56.5,51.3,30.13,West,270,0.0,0.0,83,0.00,,,0.00,WUHU21623XXSP,2013-07-29 09:27:00,
2013-07-29 05:32:00,56.3,51.2,30.13,West,270,0.0,0.0,83,0.00,,,0.00,WUHU21623XXSP,2013-07-29 09:32:00,
2013-07-29 05:37:00,56.1,51.0,30.13,West,270,0.0,0.0,83,0.00,,,0.00,WUHU21623XXSP,2013-07-29 09:37:00,
2013-07-29 05:42:00,55.9,50.8,30.13,West,270,0.0,0.0,83,0.00,,,0.00,WUHU21623XXSP,2013-07-29 09:42:00,
2013-07-29 05:47:00,55.9,51.1,30.13,West,270,0.0,0.0,84,0.00,,,0.00,WUHU21623XXSP,2013-07-29 09:47:00,
2013-07-29 05:52:00,55.8,50.9,30.13,West,270,0.0,0.0,84,0.00,,,0.00,WUHU21623XXSP,2013-07-29 09:52:00,
2013-07-29 05:57:00,55.6,50.8,30.13,West,270,0.0,0.0,84,0.00,,,0.00,WUHU21623XXSP,2013-07-29 09:57:00,
2013-07-29 06:02:00,55.4,50.8,30.14,West,270,0.0,0.0,84,0.00,,,0.00,WUHU21623XXSP,2013-07-29 10:02:00,
2013-07-29 06:07:00,55.2,50.6,30.14,West,270,0.0,0.0,84,0.00,,,0.00,WUHU21623XXSP,2013-07-29 10:07:00,
2013-07-29 06:12:00,55.2,50.4,30.14,West,270,0.0,0.0,84,0.00,,,0.00,WUHU21623XXSP,2013-07-29 10:12:00,
2013-07-29 06:17:00,55.2,50.7,30.14,West,270,0.0,0.0,85,0.00,,,0.00,WUHU21623XXSP,2013-07-29 10:17:00,
2013-07-29 06:22:00,55.0,50.6,30.14,West,270,0.0,0.0,85,0.00,,,0.00,WUHU21623XXSP,2013-07-29 10:22:00,
2013-07-29 06:27:00,54.9,50.1,30.14,West,270,0.0,0.0,84,0.00,,,0.00,WUHU21623XXSP,2013-07-29 10:27:00,
2013-07-29 06:32:00,54.7,50.2,30.14,West,270,0.0,0.0,85,0.00,,,0.00,WUHU21623XXSP,2013-07-29 10:32:00,
2013-07-29 06:37:00,54.5,50.0,30.14,West,270,0.0,0.0,85,0.00,,,0.00,WUHU21623XXSP,2013-07-29 10:37:00,
2013-07-29 06:42:00,54.3,49.9,30.14,West,270,0.0,0.0,85,0.00,,,0.00,WUHU21623XXSP,2013-07-29 10:42:00,
2013-07-29 06:47:00,54.3,49.9,30.15,West,270,0.0,0.0,85,0.00,,,0.00,WUHU21623XXSP,2013-07-29 10:47:00,
2013-07-29 06:56:00,54.1,50.0,30.15,West,270,0.0,0.0,86,0.00,,,0.00,WUHU21623XXSP,2013-07-29 10:56:00,
2013-07-29 07:01:00,54.1,50.0,30.15,West,270,0.0,0.0,86,0.00,,,0.00,WUHU21623XXSP,2013-07-29 11:01:00,
2013-07-29 07:07:00,54.1,50.0,30.15,West,270,0.0,0.0,86,0.00,,,0.00,WUHU21623XXSP,2013-07-29 11:07:00,
2013-07-29 07:12:00,54.1,50.0,30.15,West,270,0.0,0.0,86,0.00,,,0.00,WUHU21623XXSP,2013-07-29 11:12:00,
2013-07-29 07:17:00,54.1,50.0,30.16,SSW,202,0.0,0.0,86,0.00,,,0.00,WUHU21623XXSP,2013-07-29 11:17:00,
2013-07-29 07:22:00,54.3,50.2,30.16,SSW,202,0.0,0.0,86,0.00,,,0.00,WUHU21623XXSP,2013-07-29 11:22:00,
2013-07-29 07:27:00,54.3,50.5,30.16,SSW,202,0.0,0.0,87,0.00,,,0.00,WUHU21623XXSP,2013-07-29 11:27:00,
2013-07-29 07:32:00,54.3,50.5,30.16,SSW,202,0.0,0.0,87,0.00,,,0.00,WUHU21623XXSP,2013-07-29 11:32:00,
2013-07-29 07:38:00,55.0,50.8,30.16,SSW,202,0.0,0.0,87,0.00,,,0.00,WUHU21623XXSP,2013-07-29 11:38:00,
2013-07-29 07:43:00,55.2,51.4,30.16,SSW,202,0.0,0.0,87,0.00,,,0.00,WUHU21623XXSP,2013-07-29 11:43:00,
2013-07-29 07:48:00,55.2,51.4,30.16,SSW,202,0.0,0.9,87,0.00,,,0.00,WUHU21623XXSP,2013-07-29 11:48:00,
2013-07-29 07:53:00,55.4,51.5,30.16,SSW,202,0.0,0.9,87,0.00,,,0.00,WUHU21623XXSP,2013-07-29 11:53:00,
2013-07-29 07:58:00,55.6,52.1,30.16,SSW,202,0.0,0.0,88,0.00,,,0.00,WUHU21623XXSP,2013-07-29 11:58:00,
2013-07-29 08:03:00,55.6,52.1,30.16,SSW,202,0.0,0.0,88,0.00,,,0.00,WUHU21623XXSP,2013-07-29 12:03:00,
2013-07-29 08:09:00,55.9,52.4,30.16,SSW,202,0.0,0.0,88,0.00,,,0.00,WUHU21623XXSP,2013-07-29 12:09:00,
2013-07-29 08:14:00,56.3,52.8,30.16,SSW,202,0.0,0.0,88,0.00,,,0.00,WUHU21623XXSP,2013-07-29 12:14:00,
2013-07-29 08:19:00,56.5,53.0,30.16,SSW,202,0.0,0.0,88,0.00,,,0.00,WUHU21623XXSP,2013-07-29 12:19:00,
2013-07-29 08:24:00,57.0,53.5,30.16,SSW,202,0.0,0.0,88,0.00,,,0.00,WUHU21623XXSP,2013-07-29 12:24:00,
2013-07-29 08:29:00,57.4,53.9,30.16,SSW,202,0.0,0.0,88,0.00,,,0.00,WUHU21623XXSP,2013-07-29 12:29:00,
2013-07-29 08:34:00,57.7,54.2,30.17,SSW,202,0.0,0.0,88,0.00,,,0.00,WUHU21623XXSP,2013-07-29 12:34:00,
2013-07-29 08:39:00,58.1,54.6,30.16,WSW,247,0.0,1.1,88,0.00,,,0.00,WUHU21623XXSP,2013-07-29 12:39:00,
2013-07-29 08:44:00,58.6,55.4,30.17,WSW,247,0.0,1.1,89,0.00,,,0.00,WUHU21623XXSP,2013-07-29 12:44:00,
2013-07-29 08:49:00,58.8,55.6,30.17,WSW,247,0.0,0.0,89,0.00,,,0.00,WUHU21623XXSP,2013-07-29 12:49:00,
2013-07-29 08:54:00,58.8,55.3,30.17,WSW,247,0.0,1.6,88,0.00,,,0.00,WUHU21623XXSP,2013-07-29 12:54:00,
2013-07-29 08:59:00,59.2,55.7,30.18,WSW,247,0.0,1.6,88,0.00,,,0.00,WUHU21623XXSP,2013-07-29 12:59:00,
2013-07-29 09:04:00,59.5,56.0,30.18,WSW,247,0.0,0.0,88,0.00,,,0.00,WUHU21623XXSP,2013-07-29 13:04:00,
2013-07-29 09:09:00,60.1,56.4,30.18,WSW,247,0.0,0.0,88,0.00,,,0.00,WUHU21623XXSP,2013-07-29 13:09:00,
2013-07-29 09:14:00,60.6,57.1,30.18,SW,225,0.0,0.0,88,0.00,,,0.00,WUHU21623XXSP,2013-07-29 13:14:00,
2013-07-29 09:20:00,61.5,57.5,30.18,SSE,157,1.1,1.1,87,0.00,,,0.00,WUHU21623XXSP,2013-07-29 13:20:00,
2013-07-29 09:25:00,62.1,57.8,30.18,SW,225,0.0,1.1,86,0.00,,,0.00,WUHU21623XXSP,2013-07-29 13:25:00,
2013-07-29 09:30:00,62.4,57.8,30.18,SW,225,0.0,1.1,85,0.00,,,0.00,WUHU21623XXSP,2013-07-29 13:30:00,
2013-07-29 09:35:00,63.0,58.0,30.19,NW,315,0.0,1.8,84,0.00,,,0.00,WUHU21623XXSP,2013-07-29 13:35:00,
2013-07-29 09:40:00,63.5,57.9,30.19,NW,315,0.0,1.8,82,0.00,,,0.00,WUHU21623XXSP,2013-07-29 13:40:00,
2013-07-29 09:45:00,64.0,58.1,30.18,NW,315,0.0,0.9,82,0.00,,,0.00,WUHU21623XXSP,2013-07-29 13:45:00,
2013-07-29 09:50:00,64.2,57.9,30.19,NW,315,6.3,6.3,79,0.00,,,0.00,WUHU21623XXSP,2013-07-29 13:50:00,
2013-07-29 09:56:00,64.9,57.9,30.18,NW,315,0.0,6.3,78,0.00,,,0.00,WUHU21623XXSP,2013-07-29 13:56:00,
2013-07-29 10:01:00,65.3,57.1,30.18,WNW,292,0.0,2.0,75,0.00,,,0.00,WUHU21623XXSP,2013-07-29 14:01:00,
2013-07-29 10:06:00,65.5,56.9,30.18,NNW,337,2.7,2.7,74,0.00,,,0.00,WUHU21623XXSP,2013-07-29 14:06:00,
2013-07-29 10:11:00,65.8,56.2,30.18,NW,315,4.9,4.9,71,0.00,,,0.00,WUHU21623XXSP,2013-07-29 14:11:00,
2013-07-29 10:16:00,66.2,55.7,30.19,NW,315,2.0,6.0,69,0.00,,,0.00,WUHU21623XXSP,2013-07-29 14:16:00,
2013-07-29 10:21:00,66.6,55.6,30.19,NW,315,6.5,6.5,68,0.00,,,0.00,WUHU21623XXSP,2013-07-29 14:21:00,
2013-07-29 10:26:00,66.7,55.4,30.19,NW,315,6.5,6.5,67,0.00,,,0.00,WUHU21623XXSP,2013-07-29 14:26:00,
2013-07-29 10:31:00,66.9,55.6,30.19,NW,315,6.5,6.5,67,0.00,,,0.00,WUHU21623XXSP,2013-07-29 14:31:00,
2013-07-29 10:36:00,67.3,55.5,30.19,NW,315,6.3,6.7,66,0.00,,,0.00,WUHU21623XXSP,2013-07-29 14:36:00,
2013-07-29 10:41:00,67.6,55.5,30.19,NNW,337,6.5,6.7,65,0.00,,,0.00,WUHU21623XXSP,2013-07-29 14:41:00,
2013-07-29 10:46:00,67.8,55.6,30.19,NW,315,6.3,6.5,65,0.00,,,0.00,WUHU21623XXSP,2013-07-29 14:46:00,
2013-07-29 10:51:00,68.0,55.8,30.19,WNW,292,0.0,6.3,65,0.00,,,0.00,WUHU21623XXSP,2013-07-29 14:51:00,
2013-07-29 10:56:00,68.4,55.7,30.19,WNW,292,0.7,5.8,64,0.00,,,0.00,WUHU21623XXSP,2013-07-29 14:56:00,
2013-07-29 11:02:00,68.4,55.7,30.19,NNW,337,2.7,5.8,64,0.00,,,0.00,WUHU21623XXSP,2013-07-29 15:02:00,
2013-07-29 11:07:00,68.7,56.4,30.20,SW,225,3.6,3.6,65,0.00,,,0.00,WUHU21623XXSP,2013-07-29 15:07:00,
2013-07-29 11:12:00,68.9,56.2,30.20,NNW,337,7.8,7.8,64,0.00,,,0.00,WUHU21623XXSP,2013-07-29 15:12:00,
2013-07-29 11:17:00,69.1,55.9,30.20,West,270,3.4,7.8,63,0.00,,,0.00,WUHU21623XXSP,2013-07-29 15:17:00,
2013-07-29 11:22:00,69.4,56.3,30.20,West,270,3.1,6.3,63,0.00,,,0.00,WUHU21623XXSP,2013-07-29 15:22:00,
2013-07-29 11:27:00,69.6,56.0,30.20,South,180,0.0,3.1,62,0.00,,,0.00,WUHU21623XXSP,2013-07-29 15:27:00,
2013-07-29 11:32:00,70.0,56.8,30.20,NW,315,7.4,7.4,63,0.00,,,0.00,WUHU21623XXSP,2013-07-29 15:32:00,
2013-07-29 11:38:00,70.5,56.9,30.21,NW,315,5.4,7.4,62,0.00,,,0.00,WUHU21623XXSP,2013-07-29 15:38:00,
2013-07-29 11:43:00,70.7,56.5,30.20,WNW,292,5.8,5.8,61,0.00,,,0.00,WUHU21623XXSP,2013-07-29 15:43:00,
2013-07-29 11:48:00,70.9,56.4,30.20,NW,315,2.5,6.3,60,0.00,,,0.00,WUHU21623XXSP,2013-07-29 15:48:00,
2013-07-29 11:53:00,71.2,56.7,30.20,NNW,337,8.5,8.5,60,0.00,,,0.00,WUHU21623XXSP,2013-07-29 15:53:00,
2013-07-29 11:58:00,71.4,56.4,30.21,NW,315,4.9,8.5,59,0.00,,,0.00,WUHU21623XXSP,2013-07-29 15:58:00,
2013-07-29 12:03:00,72.1,56.7,30.20,NNW,337,6.7,6.7,58,0.00,,,0.00,WUHU21623XXSP,2013-07-29 16:03:00,
2013-07-29 12:09:00,72.3,57.7,30.21,NNW,337,4.3,6.7,60,0.00,,,0.00,WUHU21623XXSP,2013-07-29 16:09:00,
2013-07-29 12:14:00,73.2,57.3,30.21,WNW,292,5.8,5.8,58,0.00,,,0.00,WUHU21623XXSP,2013-07-29 16:14:00,
2013-07-29 12:19:00,73.6,56.8,30.21,NNW,337,2.2,5.8,56,0.00,,,0.00,WUHU21623XXSP,2013-07-29 16:19:00,
2013-07-29 12:24:00,73.9,57.2,30.21,NW,315,0.0,6.9,56,0.00,,,0.00,WUHU21623XXSP,2013-07-29 16:24:00,
2013-07-29 12:29:00,74.3,57.0,30.21,WNW,292,0.0,6.0,55,0.00,,,0.00,WUHU21623XXSP,2013-07-29 16:29:00,
2013-07-29 12:34:00,74.5,57.2,30.21,NW,315,6.9,6.9,55,0.00,,,0.00,WUHU21623XXSP,2013-07-29 16:34:00,
2013-07-29 12:39:00,74.7,56.7,30.20,South,180,1.1,6.9,54,0.00,,,0.00,WUHU21623XXSP,2013-07-29 16:39:00,
2013-07-29 12:44:00,75.0,57.7,30.20,NW,315,0.9,6.3,55,0.00,,,0.00,WUHU21623XXSP,2013-07-29 16:44:00,
2013-07-29 12:50:00,75.7,57.9,30.20,West,270,5.8,5.8,54,0.00,,,0.00,WUHU21623XXSP,2013-07-29 16:50:00,
2013-07-29 12:55:00,75.9,57.6,30.20,North,0,3.6,5.8,53,0.00,,,0.00,WUHU21623XXSP,2013-07-29 16:55:00,
2013-07-29 13:00:00,75.9,58.1,30.20,NW,315,7.2,7.2,54,0.00,,,0.00,WUHU21623XXSP,2013-07-29 17:00:00,
2013-07-29 13:05:00,76.3,57.9,30.20,WNW,292,0.9,7.2,53,0.00,,,0.00,WUHU21623XXSP,2013-07-29 17:05:00,
2013-07-29 13:10:00,76.5,58.5,30.20,NNW,337,3.6,5.8,54,0.00,,,0.00,WUHU21623XXSP,2013-07-29 17:10:00,
2013-07-29 13:15:00,76.8,58.4,30.20,WSW,247,2.9,3.6,53,0.00,,,0.00,WUHU21623XXSP,2013-07-29 17:15:00,
2013-07-29 13:21:00,77.5,59.0,30.20,SW,225,4.3,4.3,53,0.00,,,0.00,WUHU21623XXSP,2013-07-29 17:21:00,
2013-07-29 13:26:00,77.9,58.9,30.21,West,270,0.0,5.8,52,0.00,,,0.00,WUHU21623XXSP,2013-07-29 17:26:00,
2013-07-29 13:31:00,78.3,58.7,30.20,NW,315,6.5,6.5,51,0.00,,,0.00,WUHU21623XXSP,2013-07-29 17:31:00,
2013-07-29 13:36:00,78.4,58.8,30.20,NNW,337,6.3,6.5,51,0.00,,,0.00,WUHU21623XXSP,2013-07-29 17:36:00,
2013-07-29 13:41:00,78.3,58.7,30.20,WNW,292,2.7,6.3,51,0.00,,,0.00,WUHU21623XXSP,2013-07-29 17:41:00,
2013-07-29 13:46:00,78.6,59.0,30.20,NNW,337,0.7,5.6,51,0.00,,,0.00,WUHU21623XXSP,2013-07-29 17:46:00,
2013-07-29 13:51:00,78.6,58.5,30.20,NW,315,3.6,3.6,50,0.00,,,0.00,WUHU21623XXSP,2013-07-29 17:51:00,
2013-07-29 13:57:00,79.0,58.8,30.20,NW,315,1.6,3.6,50,0.00,,,0.00,WUHU21623XXSP,2013-07-29 17:57:00,
2013-07-29 14:02:00,79.2,59.0,30.20,NW,315,7.4,7.4,50,0.00,,,0.00,WUHU21623XXSP,2013-07-29 18:02:00,
2013-07-29 14:07:00,79.3,59.1,30.20,NW,315,2.7,7.4,50,0.00,,,0.00,WUHU21623XXSP,2013-07-29 18:07:00,
2013-07-29 14:12:00,79.3,58.5,30.20,NW,315,2.7,2.7,49,0.00,,,0.00,WUHU21623XXSP,2013-07-29 18:12:00,
2013-07-29 14:17:00,79.3,57.3,30.20,NNW,337,3.4,5.6,47,0.00,,,0.00,WUHU21623XXSP,2013-07-29 18:17:00,
2013-07-29 14:23:00,79.2,58.4,30.20,South,180,0.9,5.6,49,0.00,,,0.00,WUHU21623XXSP,2013-07-29 18:23:00,
2013-07-29 14:28:00,79.5,58.7,30.20,NW,315,5.6,5.6,49,0.00,,,0.00,WUHU21623XXSP,2013-07-29 18:28:00,
2013-07-29 14:32:00,79.9,58.8,30.20,WSW,247,1.1,5.6,49,0.00,,,0.00,WUHU21623XXSP,2013-07-29 18:32:00,
2013-07-29 14:38:00,80.2,58.7,30.20,ENE,67,1.1,5.6,48,0.00,,,0.00,WUHU21623XXSP,2013-07-29 18:38:00,
2013-07-29 14:43:00,80.4,58.3,30.20,NNW,337,6.5,6.5,48,0.00,,,0.00,WUHU21623XXSP,2013-07-29 18:43:00,
2013-07-29 14:48:00,79.9,57.8,30.20,WNW,292,2.0,6.5,47,0.00,,,0.00,WUHU21623XXSP,2013-07-29 18:48:00,
2013-07-29 14:53:00,79.7,57.6,30.20,NW,315,1.8,3.6,47,0.00,,,0.00,WUHU21623XXSP,2013-07-29 18:53:00,
2013-07-29 14:58:00,79.5,57.5,30.19,WNW,292,0.0,7.8,47,0.00,,,0.00,WUHU21623XXSP,2013-07-29 18:58:00,
2013-07-29 15:04:00,79.3,57.9,30.19,NNW,337,6.5,11.9,48,0.00,,,0.00,WUHU21623XXSP,2013-07-29 19:04:00,
2013-07-29 15:10:00,79.3,57.9,30.19,South,180,1.6,11.9,48,0.00,,,0.00,WUHU21623XXSP,2013-07-29 19:10:00,
2013-07-29 15:15:00,79.9,58.4,30.19,NW,315,5.8,5.8,48,0.00,,,0.00,WUHU21623XXSP,2013-07-29 19:15:00,
2013-07-29 15:20:00,80.4,58.3,30.20,NW,315,3.4,5.8,47,0.00,,,0.00,WUHU21623XXSP,2013-07-29 19:20:00,
2013-07-29 15:25:00,80.4,57.7,30.19,NNW,337,5.1,6.0,46,0.00,,,0.00,WUHU21623XXSP,2013-07-29 19:25:00,
2013-07-29 15:30:00,80.1,57.3,30.19,NW,315,6.3,6.3,46,0.00,,,0.00,WUHU21623XXSP,2013-07-29 19:30:00,
2013-07-29 15:35:00,79.9,57.8,30.19,WNW,292,0.9,6.3,47,0.00,,,0.00,WUHU21623XXSP,2013-07-29 19:35:00,
2013-07-29 15:40:00,79.9,57.8,30.19,NW,315,6.5,7.2,47,0.00,,,0.00,WUHU21623XXSP,2013-07-29 19:40:00,
2013-07-29 15:45:00,79.9,57.8,30.19,NW,315,4.9,7.6,47,0.00,,,0.00,WUHU21623XXSP,2013-07-29 19:45:00,
2013-07-29 15:50:00,79.5,57.5,30.19,WNW,292,1.8,7.6,47,0.00,,,0.00,WUHU21623XXSP,2013-07-29 19:50:00,
2013-07-29 15:55:00,79.5,58.1,30.19,NW,315,7.2,7.2,48,0.00,,,0.00,WUHU21623XXSP,2013-07-29 19:55:00,
2013-07-29 16:00:00,79.7,57.6,30.19,WNW,292,2.7,7.2,47,0.00,,,0.00,WUHU21623XXSP,2013-07-29 20:00:00,
2013-07-29 16:05:00,79.5,57.5,30.19,NW,315,5.4,8.7,47,0.00,,,0.00,WUHU21623XXSP,2013-07-29 20:05:00,
2013-07-29 16:11:00,79.5,58.1,30.19,NNW,337,3.8,8.7,48,0.00,,,0.00,WUHU21623XXSP,2013-07-29 20:11:00,
2013-07-29 16:16:00,79.7,58.2,30.19,North,0,8.7,8.7,48,0.00,,,0.00,WUHU21623XXSP,2013-07-29 20:16:00,
2013-07-29 16:21:00,79.7,58.2,30.19,WSW,247,6.0,8.7,48,0.00,,,0.00,WUHU21623XXSP,2013-07-29 20:21:00,
2013-07-29 16:26:00,79.5,58.1,30.19,NW,315,3.4,6.5,48,0.00,,,0.00,WUHU21623XXSP,2013-07-29 20:26:00,
2013-07-29 16:31:00,79.5,58.1,30.19,NNE,22,6.5,6.9,48,0.00,,,0.00,WUHU21623XXSP,2013-07-29 20:31:00,
2013-07-29 16:36:00,79.5,58.1,30.19,WSW,247,8.3,8.3,48,0.00,,,0.00,WUHU21623XXSP,2013-07-29 20:36:00,
2013-07-29 16:41:00,79.3,57.9,30.19,WSW,247,5.4,8.3,48,0.00,,,0.00,WUHU21623XXSP,2013-07-29 20:41:00,
2013-07-29 16:46:00,79.5,58.1,30.19,WSW,247,3.4,5.6,48,0.00,,,0.00,WUHU21623XXSP,2013-07-29 20:46:00,
2013-07-29 16:51:00,79.9,58.4,30.19,NNE,22,0.0,6.0,48,0.00,,,0.00,WUHU21623XXSP,2013-07-29 20:51:00,
2013-07-29 16:57:00,79.7,58.2,30.19,WSW,247,0.4,6.0,48,0.00,,,0.00,WUHU21623XXSP,2013-07-29 20:57:00,
2013-07-29 17:02:00,79.9,58.4,30.19,WSW,247,2.0,4.3,48,0.00,,,0.00,WUHU21623XXSP,2013-07-29 21:02:00,
2013-07-29 17:07:00,80.1,57.9,30.19,NNE,22,2.0,6.0,47,0.00,,,0.00,WUHU21623XXSP,2013-07-29 21:07:00,
2013-07-29 17:12:00,79.9,58.4,30.19,NNW,337,5.4,6.5,48,0.00,,,0.00,WUHU21623XXSP,2013-07-29 21:12:00,
2013-07-29 17:17:00,79.5,58.7,30.19,NNW,337,2.9,7.4,49,0.00,,,0.00,WUHU21623XXSP,2013-07-29 21:17:00,
2013-07-29 17:22:00,79.5,58.5,30.19,NNW,337,2.9,7.4,49,0.00,,,0.00,WUHU21623XXSP,2013-07-29 21:22:00,
2013-07-29 17:27:00,79.9,58.8,30.19,North,0,3.8,3.8,48,0.00,,,0.00,WUHU21623XXSP,2013-07-29 21:27:00,
2013-07-29 17:32:00,80.1,59.2,30.19,NW,315,0.0,6.3,49,0.00,,,0.00,WUHU21623XXSP,2013-07-29 21:32:00,
2013-07-29 17:37:00,80.2,58.7,30.19,NNW,337,3.4,3.4,48,0.00,,,0.00,WUHU21623XXSP,2013-07-29 21:37:00,
2013-07-29 17:42:00,79.9,57.8,30.19,NNW,337,3.4,3.4,48,0.00,,,0.00,WUHU21623XXSP,2013-07-29 21:42:00,
2013-07-29 17:47:00,79.3,58.5,30.20,WSW,247,0.0,6.0,49,0.00,,,0.00,WUHU21623XXSP,2013-07-29 21:47:00,
2013-07-29 17:52:00,79.0,58.2,30.20,WSW,247,1.8,6.0,49,0.00,,,0.00,WUHU21623XXSP,2013-07-29 21:52:00,
2013-07-29 17:57:00,79.0,58.2,30.20,NW,315,0.0,4.3,49,0.00,,,0.00,WUHU21623XXSP,2013-07-29 21:57:00,
2013-07-29 18:02:00,79.3,58.5,30.20,North,0,1.8,5.4,49,0.00,,,0.00,WUHU21623XXSP,2013-07-29 22:02:00,
2013-07-29 18:07:00,79.5,58.5,30.21,NW,315,1.8,5.4,50,0.00,,,0.00,WUHU21623XXSP,2013-07-29 22:07:00,
2013-07-29 18:12:00,79.5,58.7,30.21,WNW,292,2.5,2.5,50,0.00,,,0.00,WUHU21623XXSP,2013-07-29 22:12:00,
2013-07-29 18:18:00,79.3,58.5,30.21,NNW,337,6.5,6.5,49,0.00,,,0.00,WUHU21623XXSP,2013-07-29 22:18:00,
2013-07-29 18:23:00,79.0,58.4,30.21,NW,315,3.8,6.5,50,0.00,,,0.00,WUHU21623XXSP,2013-07-29 22:23:00,
2013-07-29 18:28:00,78.6,58.5,30.21,WSW,247,7.4,7.4,50,0.00,,,0.00,WUHU21623XXSP,2013-07-29 22:28:00,
2013-07-29 18:33:00,78.6,58.5,30.21,North,0,3.8,7.4,50,0.00,,,0.00,WUHU21623XXSP,2013-07-29 22:33:00,
2013-07-29 18:38:00,78.4,58.3,30.21,NNW,337,3.1,3.8,50,0.00,,,0.00,WUHU21623XXSP,2013-07-29 22:38:00,
2013-07-29 18:43:00,78.1,58.5,30.21,WSW,247,2.7,3.4,51,0.00,,,0.00,WUHU21623XXSP,2013-07-29 22:43:00,
2013-07-29 18:48:00,78.1,58.5,30.21,WSW,247,2.5,4.9,51,0.00,,,0.00,WUHU21623XXSP,2013-07-29 22:48:00,
2013-07-29 18:53:00,77.9,58.3,30.20,WSW,247,6.7,6.7,51,0.00,,,0.00,WUHU21623XXSP,2013-07-29 22:53:00,
2013-07-29 18:59:00,77.7,58.2,30.20,NW,315,6.7,6.7,51,0.00,,,0.00,WUHU21623XXSP,2013-07-29 22:59:00,
2013-07-29 19:04:00,77.5,58.0,30.20,WSW,247,1.6,6.7,51,0.00,,,0.00,WUHU21623XXSP,2013-07-29 23:04:00,
2013-07-29 19:09:00,77.4,58.4,30.21,WSW,247,2.0,4.7,52,0.00,,,0.00,WUHU21623XXSP,2013-07-29 23:09:00,
2013-07-29 19:14:00,77.2,58.7,30.21,North,0,2.7,6.9,53,0.00,,,0.00,WUHU21623XXSP,2013-07-29 23:14:00,
2013-07-29 19:19:00,76.8,58.4,30.21,North,0,2.5,6.9,53,0.00,,,0.00,WUHU21623XXSP,2013-07-29 23:19:00,
2013-07-29 19:24:00,75.9,58.1,30.21,WSW,247,3.1,6.9,54,0.00,,,0.00,WUHU21623XXSP,2013-07-29 23:24:00,
2013-07-29 19:29:00,75.6,57.7,30.21,North,0,4.0,4.3,54,0.00,,,0.00,WUHU21623XXSP,2013-07-29 23:29:00,
2013-07-29 19:35:00,75.0,57.7,30.21,North,0,3.6,4.3,55,0.00,,,0.00,WUHU21623XXSP,2013-07-29 23:35:00,
2013-07-29 19:40:00,74.7,57.9,30.22,North,0,1.8,3.6,56,0.00,,,0.00,WUHU21623XXSP,2013-07-29 23:40:00,
2013-07-29 19:45:00,73.9,57.7,30.22,NNW,337,1.8,2.0,57,0.00,,,0.00,WUHU21623XXSP,2013-07-29 23:45:00,
2013-07-29 19:50:00,73.4,57.6,30.22,NNW,337,3.1,3.1,58,0.00,,,0.00,WUHU21623XXSP,2013-07-29 23:50:00,
2013-07-29 19:55:00,73.0,57.8,30.22,NNW,337,0.7,3.1,59,0.00,,,0.00,WUHU21623XXSP,2013-07-29 23:55:00,
2013-07-29 20:00:00,72.9,58.2,30.22,NNW,337,0.0,1.8,60,0.00,,,0.00,WUHU21623XXSP,2013-07-30 00:00:00,
2013-07-29 20:06:00,72.7,58.4,30.22,NNW,337,0.0,1.8,61,0.00,,,0.00,WUHU21623XXSP,2013-07-30 00:06:00,
2013-07-29 20:11:00,72.3,58.5,30.22,NNW,337,0.0,0.0,62,0.00,,,0.00,WUHU21623XXSP,2013-07-30 00:11:00,
2013-07-29 20:16:00,72.1,58.4,30.22,NNW,337,0.0,0.0,62,0.00,,,0.00,WUHU21623XXSP,2013-07-30 00:16:00,
2013-07-29 20:21:00,71.8,58.6,30.22,NNW,337,0.0,0.0,63,0.00,,,0.00,WUHU21623XXSP,2013-07-30 00:21:00,
2013-07-29 20:26:00,71.4,58.3,30.22,NNW,337,0.0,0.0,63,0.00,,,0.00,WUHU21623XXSP,2013-07-30 00:26:00,
2013-07-29 20:31:00,71.2,58.0,30.22,NNW,337,0.0,0.0,63,0.00,,,0.00,WUHU21623XXSP,2013-07-30 00:31:00,
2013-07-29 20:36:00,70.5,57.7,30.22,NNW,337,0.0,0.0,64,0.00,,,0.00,WUHU21623XXSP,2013-07-30 00:36:00,
2013-07-29 20:41:00,70.0,57.6,30.22,NNW,337,0.0,0.0,65,0.00,,,0.00,WUHU21623XXSP,2013-07-30 00:41:00,
2013-07-29 20:47:00,69.6,57.9,30.22,NNW,337,0.0,0.0,66,0.00,,,0.00,WUHU21623XXSP,2013-07-30 00:47:00,
2013-07-29 20:52:00,68.9,57.0,30.22,NNW,337,0.0,0.0,66,0.00,,,0.00,WUHU21623XXSP,2013-07-30 00:52:00,
2013-07-29 20:57:00,68.4,56.9,30.22,NNW,337,0.0,0.0,67,0.00,,,0.00,WUHU21623XXSP,2013-07-30 00:57:00,
2013-07-29 21:02:00,67.8,56.9,30.22,NNW,337,0.0,0.0,68,0.00,,,0.00,WUHU21623XXSP,2013-07-30 01:02:00,
2013-07-29 21:07:00,67.6,56.7,30.22,NNW,337,0.0,0.0,68,0.00,,,0.00,WUHU21623XXSP,2013-07-30 01:07:00,
2013-07-29 21:12:00,67.1,56.3,30.22,NNW,337,0.0,0.0,69,0.00,,,0.00,WUHU21623XXSP,2013-07-30 01:12:00,
2013-07-29 21:17:00,66.7,56.2,30.22,NNW,337,0.0,0.0,69,0.00,,,0.00,WUHU21623XXSP,2013-07-30 01:17:00,
2013-07-29 21:22:00,66.4,56.0,30.22,NNW,337,0.0,0.0,69,0.00,,,0.00,WUHU21623XXSP,2013-07-30 01:22:00,
2013-07-29 21:28:00,65.8,55.8,30.22,NNW,337,0.0,0.0,70,0.00,,,0.00,WUHU21623XXSP,2013-07-30 01:28:00,
2013-07-29 21:33:00,65.1,55.1,30.22,NNW,337,0.0,0.0,70,0.00,,,0.00,WUHU21623XXSP,2013-07-30 01:33:00,
2013-07-29 21:38:00,64.6,54.7,30.22,NNW,337,0.0,0.0,70,0.00,,,0.00,WUHU21623XXSP,2013-07-30 01:38:00,
2013-07-29 21:43:00,64.0,54.1,30.22,NNW,337,0.0,0.0,70,0.00,,,0.00,WUHU21623XXSP,2013-07-30 01:43:00,
2013-07-29 21:48:00,63.7,54.0,30.22,NNW,337,0.0,0.0,70,0.00,,,0.00,WUHU21623XXSP,2013-07-30 01:48:00,
2013-07-29 21:53:00,63.3,53.8,30.22,NNW,337,0.0,0.0,71,0.00,,,0.00,WUHU21623XXSP,2013-07-30 01:53:00,
2013-07-29 21:58:00,63.1,54.0,30.22,NNW,337,0.0,0.0,72,0.00,,,0.00,WUHU21623XXSP,2013-07-30 01:58:00,
2013-07-29 22:03:00,62.8,53.6,30.23,NNW,337,0.0,0.0,72,0.00,,,0.00,WUHU21623XXSP,2013-07-30 02:03:00,
2013-07-29 22:09:00,62.4,53.6,30.23,NNW,337,0.0,0.0,73,0.00,,,0.00,WUHU21623XXSP,2013-07-30 02:09:00,
2013-07-29 22:14:00,62.1,53.5,30.23,NNW,337,0.0,0.0,73,0.00,,,0.00,WUHU21623XXSP,2013-07-30 02:14:00,
2013-07-29 22:19:00,61.7,53.3,30.23,NNW,337,0.0,0.0,74,0.00,,,0.00,WUHU21623XXSP,2013-07-30 02:19:00,
2013-07-29 22:24:00,61.3,53.0,30.23,NNW,337,0.0,0.0,74,0.00,,,0.00,WUHU21623XXSP,2013-07-30 02:24:00,
2013-07-29 22:29:00,61.2,53.2,30.24,NNW,337,0.0,0.0,75,0.00,,,0.00,WUHU21623XXSP,2013-07-30 02:29:00,
2013-07-29 22:34:00,61.0,53.4,30.24,NNW,337,0.0,0.0,76,0.00,,,0.00,WUHU21623XXSP,2013-07-30 02:34:00,
2013-07-29 22:39:00,60.6,53.6,30.24,NNW,337,0.0,0.0,77,0.00,,,0.00,WUHU21623XXSP,2013-07-30 02:39:00,
2013-07-29 22:44:00,60.6,53.8,30.24,NNW,337,0.0,0.0,78,0.00,,,0.00,WUHU21623XXSP,2013-07-30 02:44:00,
2013-07-29 22:49:00,60.4,53.6,30.24,NNW,337,0.0,0.0,78,0.00,,,0.00,WUHU21623XXSP,2013-07-30 02:49:00,
2013-07-29 22:54:00,60.3,53.8,30.24,NNW,337,0.0,0.0,79,0.00,,,0.00,WUHU21623XXSP,2013-07-30 02:54:00,
2013-07-29 22:59:00,60.1,53.6,30.24,NNW,337,0.0,0.0,79,0.00,,,0.00,WUHU21623XXSP,2013-07-30 02:59:00,
2013-07-29 23:05:00,59.5,53.1,30.24,NNW,337,0.0,0.0,79,0.00,,,0.00,WUHU21623XXSP,2013-07-30 03:05:00,
2013-07-29 23:10:00,59.4,53.1,30.24,NNW,337,0.0,0.0,79,0.00,,,0.00,WUHU21623XXSP,2013-07-30 03:10:00,
2013-07-29 23:15:00,58.8,52.3,30.24,NNW,337,0.0,0.0,79,0.00,,,0.00,WUHU21623XXSP,2013-07-30 03:15:00,
2013-07-29 23:20:00,58.8,52.7,30.24,NNW,337,0.0,0.0,80,0.00,,,0.00,WUHU21623XXSP,2013-07-30 03:20:00,
2013-07-29 23:25:00,58.8,52.7,30.24,NNW,337,0.0,0.0,80,0.00,,,0.00,WUHU21623XXSP,2013-07-30 03:25:00,
2013-07-29 23:30:00,58.8,52.7,30.24,NNW,337,0.0,0.0,80,0.00,,,0.00,WUHU21623XXSP,2013-07-30 03:30:00,
2013-07-29 23:35:00,58.6,52.5,30.24,NNW,337,0.0,0.0,80,0.00,,,0.00,WUHU21623XXSP,2013-07-30 03:35:00,
2013-07-29 23:40:00,58.8,53.0,30.24,NNW,337,0.0,0.0,81,0.00,,,0.00,WUHU21623XXSP,2013-07-30 03:40:00,
2013-07-29 23:45:00,58.8,53.0,30.24,NNW,337,0.0,0.0,81,0.00,,,0.00,WUHU21623XXSP,2013-07-30 03:45:00,
2013-07-29 23:50:00,58.6,52.8,30.24,NNW,337,0.0,0.0,81,0.00,,,0.00,WUHU21623XXSP,2013-07-30 03:50:00,
2013-07-29 23:55:00,58.3,52.7,30.24,NNW,337,0.0,0.0,81,0.00,,,0.00,WUHU21623XXSP,2013-07-30 03:55:00,